sensor_id;sensor_type;location;lat;lon;timestamp;P1;durP1;ratioP1;P2;durP2;ratioP2
74707;SDS011;63360;50.104;8.074;2024-02-21T00:01:57;10.85;;;2.97;;
74707;SDS011;63360;50.104;8.074;2024-02-21T00:04:24;10.32;;;3.13;;
74707;SDS011;63360;50.104;8.074;2024-02-21T00:06:50;12.43;;;3.17;;
74707;SDS011;63360;50.104;8.074;2024-02-21T00:09:17;8.80;;;3.05;;
74707;SDS011;63360;50.104;8.074;2024-02-21T00:11:45;12.37;;;3.83;;
74707;SDS011;63360;50.104;8.074;2024-02-21T00:14:12;9.82;;;3.45;;
74707;SDS011;63360;50.104;8.074;2024-02-21T00:16:38;10.43;;;3.17;;
74707;SDS011;63360;50.104;8.074;2024-02-21T00:19:04;11.55;;;3.65;;
74707;SDS011;63360;50.104;8.074;2024-02-21T00:21:31;13.68;;;3.28;;
74707;SDS011;63360;50.104;8.074;2024-02-21T00:23:57;12.50;;;3.30;;
74707;SDS011;63360;50.104;8.074;2024-02-21T00:26:23;15.23;;;3.60;;
74707;SDS011;63360;50.104;8.074;2024-02-21T00:28:50;8.48;;;3.20;;
74707;SDS011;63360;50.104;8.074;2024-02-21T00:31:16;11.38;;;3.17;;
74707;SDS011;63360;50.104;8.074;2024-02-21T00:33:43;9.75;;;3.15;;
74707;SDS011;63360;50.104;8.074;2024-02-21T00:36:09;13.30;;;3.40;;
74707;SDS011;63360;50.104;8.074;2024-02-21T00:38:36;10.98;;;3.28;;
74707;SDS011;63360;50.104;8.074;2024-02-21T00:41:02;10.55;;;3.33;;
74707;SDS011;63360;50.104;8.074;2024-02-21T00:43:29;14.13;;;3.80;;
74707;SDS011;63360;50.104;8.074;2024-02-21T00:45:55;10.82;;;3.03;;
74707;SDS011;63360;50.104;8.074;2024-02-21T00:48:22;8.57;;;2.90;;
74707;SDS011;63360;50.104;8.074;2024-02-21T00:50:49;9.05;;;2.92;;
74707;SDS011;63360;50.104;8.074;2024-02-21T00:53:15;10.57;;;3.30;;
74707;SDS011;63360;50.104;8.074;2024-02-21T00:55:41;9.02;;;3.20;;
74707;SDS011;63360;50.104;8.074;2024-02-21T00:58:09;10.10;;;3.10;;
74707;SDS011;63360;50.104;8.074;2024-02-21T01:00:35;9.93;;;3.20;;
74707;SDS011;63360;50.104;8.074;2024-02-21T01:03:02;13.27;;;3.25;;
74707;SDS011;63360;50.104;8.074;2024-02-21T01:05:28;12.55;;;2.90;;
74707;SDS011;63360;50.104;8.074;2024-02-21T01:07:55;10.15;;;3.55;;
74707;SDS011;63360;50.104;8.074;2024-02-21T01:10:21;11.57;;;3.47;;
74707;SDS011;63360;50.104;8.074;2024-02-21T01:12:49;10.00;;;2.60;;
74707;SDS011;63360;50.104;8.074;2024-02-21T01:15:15;10.80;;;3.20;;
74707;SDS011;63360;50.104;8.074;2024-02-21T01:17:41;9.35;;;2.90;;
74707;SDS011;63360;50.104;8.074;2024-02-21T01:20:08;9.60;;;3.20;;
74707;SDS011;63360;50.104;8.074;2024-02-21T01:22:35;10.45;;;3.60;;
74707;SDS011;63360;50.104;8.074;2024-02-21T01:25:01;8.67;;;3.07;;
74707;SDS011;63360;50.104;8.074;2024-02-21T01:27:28;9.50;;;3.40;;
74707;SDS011;63360;50.104;8.074;2024-02-21T01:29:54;9.90;;;3.50;;
74707;SDS011;63360;50.104;8.074;2024-02-21T01:32:21;12.45;;;3.22;;
74707;SDS011;63360;50.104;8.074;2024-02-21T01:34:50;11.40;;;3.25;;
74707;SDS011;63360;50.104;8.074;2024-02-21T01:37:17;11.27;;;3.60;;
74707;SDS011;63360;50.104;8.074;2024-02-21T01:39:44;10.50;;;3.25;;
74707;SDS011;63360;50.104;8.074;2024-02-21T01:42:10;8.40;;;3.50;;
74707;SDS011;63360;50.104;8.074;2024-02-21T01:44:36;11.98;;;3.40;;
74707;SDS011;63360;50.104;8.074;2024-02-21T01:47:04;9.80;;;3.75;;
74707;SDS011;63360;50.104;8.074;2024-02-21T01:49:30;8.53;;;3.00;;
74707;SDS011;63360;50.104;8.074;2024-02-21T01:51:57;13.05;;;2.97;;
74707;SDS011;63360;50.104;8.074;2024-02-21T01:54:24;9.20;;;2.97;;
74707;SDS011;63360;50.104;8.074;2024-02-21T01:56:51;9.20;;;2.92;;
74707;SDS011;63360;50.104;8.074;2024-02-21T01:59:18;8.55;;;3.00;;
74707;SDS011;63360;50.104;8.074;2024-02-21T02:01:46;7.63;;;3.00;;
74707;SDS011;63360;50.104;8.074;2024-02-21T02:04:12;11.18;;;2.90;;
74707;SDS011;63360;50.104;8.074;2024-02-21T02:06:40;8.80;;;2.78;;
74707;SDS011;63360;50.104;8.074;2024-02-21T02:09:07;13.60;;;3.33;;
74707;SDS011;63360;50.104;8.074;2024-02-21T02:11:34;10.07;;;3.08;;
74707;SDS011;63360;50.104;8.074;2024-02-21T02:14:02;11.43;;;3.40;;
74707;SDS011;63360;50.104;8.074;2024-02-21T02:16:28;11.57;;;3.50;;
74707;SDS011;63360;50.104;8.074;2024-02-21T02:18:54;9.05;;;3.50;;
74707;SDS011;63360;50.104;8.074;2024-02-21T02:21:23;9.02;;;3.00;;
74707;SDS011;63360;50.104;8.074;2024-02-21T02:23:53;14.73;;;3.63;;
74707;SDS011;63360;50.104;8.074;2024-02-21T02:26:20;10.77;;;3.13;;
74707;SDS011;63360;50.104;8.074;2024-02-21T02:28:46;11.52;;;3.22;;
74707;SDS011;63360;50.104;8.074;2024-02-21T02:31:12;12.60;;;3.10;;
74707;SDS011;63360;50.104;8.074;2024-02-21T02:33:39;12.73;;;3.22;;
74707;SDS011;63360;50.104;8.074;2024-02-21T02:36:05;10.60;;;3.17;;
74707;SDS011;63360;50.104;8.074;2024-02-21T02:38:32;8.10;;;2.93;;
74707;SDS011;63360;50.104;8.074;2024-02-21T02:40:58;8.55;;;3.30;;
74707;SDS011;63360;50.104;8.074;2024-02-21T02:43:25;13.55;;;3.17;;
74707;SDS011;63360;50.104;8.074;2024-02-21T02:45:51;8.98;;;3.03;;
74707;SDS011;63360;50.104;8.074;2024-02-21T02:48:17;13.23;;;3.60;;
74707;SDS011;63360;50.104;8.074;2024-02-21T02:50:46;9.90;;;3.00;;
74707;SDS011;63360;50.104;8.074;2024-02-21T02:53:12;11.27;;;3.00;;
74707;SDS011;63360;50.104;8.074;2024-02-21T02:55:39;12.63;;;3.85;;
74707;SDS011;63360;50.104;8.074;2024-02-21T02:58:05;8.25;;;3.03;;
74707;SDS011;63360;50.104;8.074;2024-02-21T03:00:32;8.88;;;3.40;;
74707;SDS011;63360;50.104;8.074;2024-02-21T03:03:02;9.43;;;3.20;;
74707;SDS011;63360;50.104;8.074;2024-02-21T03:05:31;8.15;;;2.85;;
74707;SDS011;63360;50.104;8.074;2024-02-21T03:07:58;10.63;;;3.25;;
74707;SDS011;63360;50.104;8.074;2024-02-21T03:10:25;12.93;;;3.47;;
74707;SDS011;63360;50.104;8.074;2024-02-21T03:12:51;10.35;;;3.50;;
74707;SDS011;63360;50.104;8.074;2024-02-21T03:15:19;7.87;;;2.80;;
74707;SDS011;63360;50.104;8.074;2024-02-21T03:17:45;10.73;;;2.90;;
74707;SDS011;63360;50.104;8.074;2024-02-21T03:20:12;13.35;;;3.42;;
74707;SDS011;63360;50.104;8.074;2024-02-21T03:22:39;13.82;;;3.25;;
74707;SDS011;63360;50.104;8.074;2024-02-21T03:25:07;10.02;;;2.80;;
74707;SDS011;63360;50.104;8.074;2024-02-21T03:27:35;13.43;;;3.00;;
74707;SDS011;63360;50.104;8.074;2024-02-21T03:30:01;11.65;;;3.10;;
74707;SDS011;63360;50.104;8.074;2024-02-21T03:32:28;8.77;;;2.65;;
74707;SDS011;63360;50.104;8.074;2024-02-21T03:34:56;9.00;;;2.88;;
74707;SDS011;63360;50.104;8.074;2024-02-21T03:37:22;10.15;;;3.25;;
74707;SDS011;63360;50.104;8.074;2024-02-21T03:39:48;12.70;;;3.87;;
74707;SDS011;63360;50.104;8.074;2024-02-21T03:42:15;12.45;;;3.03;;
74707;SDS011;63360;50.104;8.074;2024-02-21T03:44:41;11.05;;;3.72;;
74707;SDS011;63360;50.104;8.074;2024-02-21T03:47:08;13.00;;;3.13;;
74707;SDS011;63360;50.104;8.074;2024-02-21T03:49:37;9.63;;;3.08;;
74707;SDS011;63360;50.104;8.074;2024-02-21T03:52:03;10.13;;;2.70;;
74707;SDS011;63360;50.104;8.074;2024-02-21T03:54:30;10.25;;;2.78;;
74707;SDS011;63360;50.104;8.074;2024-02-21T03:56:56;8.95;;;3.00;;
74707;SDS011;63360;50.104;8.074;2024-02-21T03:59:23;8.50;;;3.08;;
74707;SDS011;63360;50.104;8.074;2024-02-21T04:01:52;10.20;;;3.20;;
74707;SDS011;63360;50.104;8.074;2024-02-21T04:04:19;11.83;;;2.77;;
74707;SDS011;63360;50.104;8.074;2024-02-21T04:06:50;10.55;;;3.13;;
74707;SDS011;63360;50.104;8.074;2024-02-21T04:09:17;12.45;;;3.20;;
74707;SDS011;63360;50.104;8.074;2024-02-21T04:11:43;12.02;;;2.92;;
74707;SDS011;63360;50.104;8.074;2024-02-21T04:14:10;12.80;;;3.22;;
74707;SDS011;63360;50.104;8.074;2024-02-21T04:16:37;9.40;;;2.63;;
74707;SDS011;63360;50.104;8.074;2024-02-21T04:19:05;9.50;;;3.00;;
74707;SDS011;63360;50.104;8.074;2024-02-21T04:21:31;10.88;;;2.75;;
74707;SDS011;63360;50.104;8.074;2024-02-21T04:23:57;8.75;;;2.80;;
74707;SDS011;63360;50.104;8.074;2024-02-21T04:26:24;10.75;;;2.85;;
74707;SDS011;63360;50.104;8.074;2024-02-21T04:28:51;12.57;;;2.50;;
74707;SDS011;63360;50.104;8.074;2024-02-21T04:31:17;9.25;;;2.50;;
74707;SDS011;63360;50.104;8.074;2024-02-21T04:33:43;9.98;;;3.28;;
74707;SDS011;63360;50.104;8.074;2024-02-21T04:36:11;14.50;;;3.50;;
74707;SDS011;63360;50.104;8.074;2024-02-21T04:38:38;12.00;;;3.17;;
74707;SDS011;63360;50.104;8.074;2024-02-21T04:41:05;10.57;;;3.30;;
74707;SDS011;63360;50.104;8.074;2024-02-21T04:43:32;12.15;;;3.05;;
74707;SDS011;63360;50.104;8.074;2024-02-21T04:45:58;11.90;;;3.10;;
74707;SDS011;63360;50.104;8.074;2024-02-21T04:48:25;10.57;;;2.60;;
74707;SDS011;63360;50.104;8.074;2024-02-21T04:50:51;8.98;;;2.72;;
74707;SDS011;63360;50.104;8.074;2024-02-21T04:53:18;8.33;;;2.67;;
74707;SDS011;63360;50.104;8.074;2024-02-21T04:55:44;8.32;;;3.10;;
74707;SDS011;63360;50.104;8.074;2024-02-21T04:58:11;8.13;;;2.90;;
74707;SDS011;63360;50.104;8.074;2024-02-21T05:00:37;9.55;;;2.88;;
74707;SDS011;63360;50.104;8.074;2024-02-21T05:03:03;10.45;;;2.55;;
74707;SDS011;63360;50.104;8.074;2024-02-21T05:05:30;9.90;;;2.80;;
74707;SDS011;63360;50.104;8.074;2024-02-21T05:07:57;8.85;;;2.85;;
74707;SDS011;63360;50.104;8.074;2024-02-21T05:10:23;9.60;;;2.65;;
74707;SDS011;63360;50.104;8.074;2024-02-21T05:12:49;10.65;;;2.45;;
74707;SDS011;63360;50.104;8.074;2024-02-21T05:15:16;6.70;;;2.65;;
74707;SDS011;63360;50.104;8.074;2024-02-21T05:17:42;15.13;;;3.40;;
74707;SDS011;63360;50.104;8.074;2024-02-21T05:20:09;9.73;;;2.85;;
74707;SDS011;63360;50.104;8.074;2024-02-21T05:22:36;10.70;;;2.70;;
74707;SDS011;63360;50.104;8.074;2024-02-21T05:25:03;10.50;;;2.72;;
74707;SDS011;63360;50.104;8.074;2024-02-21T05:27:29;7.65;;;2.50;;
74707;SDS011;63360;50.104;8.074;2024-02-21T05:29:56;7.83;;;2.73;;
74707;SDS011;63360;50.104;8.074;2024-02-21T05:32:22;10.02;;;2.33;;
74707;SDS011;63360;50.104;8.074;2024-02-21T05:34:48;7.35;;;2.35;;
74707;SDS011;63360;50.104;8.074;2024-02-21T05:37:16;7.63;;;2.63;;
74707;SDS011;63360;50.104;8.074;2024-02-21T05:39:42;8.10;;;3.25;;
74707;SDS011;63360;50.104;8.074;2024-02-21T05:42:09;9.97;;;3.63;;
74707;SDS011;63360;50.104;8.074;2024-02-21T05:44:36;8.30;;;2.53;;
74707;SDS011;63360;50.104;8.074;2024-02-21T05:47:02;9.10;;;2.78;;
74707;SDS011;63360;50.104;8.074;2024-02-21T05:49:29;9.55;;;2.58;;
74707;SDS011;63360;50.104;8.074;2024-02-21T05:51:55;8.68;;;2.70;;
74707;SDS011;63360;50.104;8.074;2024-02-21T05:54:21;7.60;;;2.73;;
74707;SDS011;63360;50.104;8.074;2024-02-21T05:56:48;9.82;;;3.08;;
74707;SDS011;63360;50.104;8.074;2024-02-21T05:59:14;12.77;;;4.00;;
74707;SDS011;63360;50.104;8.074;2024-02-21T06:01:41;11.45;;;4.05;;
74707;SDS011;63360;50.104;8.074;2024-02-21T06:04:07;10.98;;;3.55;;
74707;SDS011;63360;50.104;8.074;2024-02-21T06:06:33;10.43;;;3.70;;
74707;SDS011;63360;50.104;8.074;2024-02-21T06:09:00;9.23;;;3.50;;
74707;SDS011;63360;50.104;8.074;2024-02-21T06:11:28;14.27;;;4.18;;
74707;SDS011;63360;50.104;8.074;2024-02-21T06:13:55;12.73;;;3.92;;
74707;SDS011;63360;50.104;8.074;2024-02-21T06:16:22;13.10;;;4.35;;
74707;SDS011;63360;50.104;8.074;2024-02-21T06:18:48;11.70;;;3.57;;
74707;SDS011;63360;50.104;8.074;2024-02-21T06:21:14;12.13;;;3.17;;
74707;SDS011;63360;50.104;8.074;2024-02-21T06:23:42;8.82;;;3.13;;
74707;SDS011;63360;50.104;8.074;2024-02-21T06:26:09;10.52;;;3.28;;
74707;SDS011;63360;50.104;8.074;2024-02-21T06:28:36;9.13;;;3.00;;
74707;SDS011;63360;50.104;8.074;2024-02-21T06:31:02;9.03;;;3.03;;
74707;SDS011;63360;50.104;8.074;2024-02-21T06:33:28;10.55;;;3.30;;
74707;SDS011;63360;50.104;8.074;2024-02-21T06:35:55;9.27;;;3.80;;
74707;SDS011;63360;50.104;8.074;2024-02-21T06:38:21;8.27;;;3.28;;
74707;SDS011;63360;50.104;8.074;2024-02-21T06:40:48;8.25;;;3.25;;
74707;SDS011;63360;50.104;8.074;2024-02-21T06:43:18;11.23;;;3.67;;
74707;SDS011;63360;50.104;8.074;2024-02-21T06:45:46;11.07;;;3.60;;
74707;SDS011;63360;50.104;8.074;2024-02-21T06:48:17;8.65;;;3.85;;
74707;SDS011;63360;50.104;8.074;2024-02-21T06:50:44;11.07;;;4.13;;
74707;SDS011;63360;50.104;8.074;2024-02-21T06:53:11;8.30;;;3.70;;
74707;SDS011;63360;50.104;8.074;2024-02-21T06:55:38;9.70;;;3.60;;
74707;SDS011;63360;50.104;8.074;2024-02-21T06:58:04;12.00;;;3.85;;
74707;SDS011;63360;50.104;8.074;2024-02-21T07:00:30;10.63;;;3.50;;
74707;SDS011;63360;50.104;8.074;2024-02-21T07:02:57;9.48;;;3.08;;
74707;SDS011;63360;50.104;8.074;2024-02-21T07:05:24;8.30;;;3.25;;
74707;SDS011;63360;50.104;8.074;2024-02-21T07:07:50;9.87;;;3.50;;
74707;SDS011;63360;50.104;8.074;2024-02-21T07:10:17;10.55;;;3.30;;
74707;SDS011;63360;50.104;8.074;2024-02-21T07:12:43;11.43;;;3.33;;
74707;SDS011;63360;50.104;8.074;2024-02-21T07:15:10;10.07;;;3.40;;
74707;SDS011;63360;50.104;8.074;2024-02-21T07:17:36;10.82;;;3.50;;
74707;SDS011;63360;50.104;8.074;2024-02-21T07:20:03;13.53;;;3.23;;
74707;SDS011;63360;50.104;8.074;2024-02-21T07:22:29;12.68;;;3.10;;
74707;SDS011;63360;50.104;8.074;2024-02-21T07:24:56;9.27;;;3.30;;
74707;SDS011;63360;50.104;8.074;2024-02-21T07:27:22;8.25;;;2.95;;
74707;SDS011;63360;50.104;8.074;2024-02-21T07:29:48;12.40;;;3.50;;
74707;SDS011;63360;50.104;8.074;2024-02-21T07:32:15;10.07;;;2.83;;
74707;SDS011;63360;50.104;8.074;2024-02-21T07:34:42;10.35;;;3.10;;
74707;SDS011;63360;50.104;8.074;2024-02-21T07:37:09;9.32;;;3.00;;
74707;SDS011;63360;50.104;8.074;2024-02-21T07:39:36;9.30;;;3.08;;
74707;SDS011;63360;50.104;8.074;2024-02-21T07:42:03;9.27;;;2.83;;
74707;SDS011;63360;50.104;8.074;2024-02-21T07:44:30;8.30;;;2.90;;
74707;SDS011;63360;50.104;8.074;2024-02-21T07:46:58;9.45;;;3.03;;
74707;SDS011;63360;50.104;8.074;2024-02-21T07:49:25;11.20;;;2.78;;
74707;SDS011;63360;50.104;8.074;2024-02-21T07:51:51;8.23;;;2.83;;
74707;SDS011;63360;50.104;8.074;2024-02-21T07:54:18;8.35;;;3.03;;
74707;SDS011;63360;50.104;8.074;2024-02-21T07:56:46;9.77;;;2.87;;
74707;SDS011;63360;50.104;8.074;2024-02-21T07:59:13;7.28;;;2.80;;
74707;SDS011;63360;50.104;8.074;2024-02-21T08:01:40;10.85;;;3.33;;
74707;SDS011;63360;50.104;8.074;2024-02-21T08:04:06;11.25;;;3.28;;
74707;SDS011;63360;50.104;8.074;2024-02-21T08:06:33;11.63;;;3.10;;
74707;SDS011;63360;50.104;8.074;2024-02-21T08:08:59;9.40;;;2.70;;
74707;SDS011;63360;50.104;8.074;2024-02-21T08:11:26;11.15;;;2.72;;
74707;SDS011;63360;50.104;8.074;2024-02-21T08:13:53;9.63;;;2.70;;
74707;SDS011;63360;50.104;8.074;2024-02-21T08:16:19;10.77;;;3.17;;
74707;SDS011;63360;50.104;8.074;2024-02-21T08:18:46;10.80;;;2.35;;
74707;SDS011;63360;50.104;8.074;2024-02-21T08:21:12;6.87;;;2.50;;
74707;SDS011;63360;50.104;8.074;2024-02-21T08:23:39;7.15;;;2.53;;
74707;SDS011;63360;50.104;8.074;2024-02-21T08:26:05;7.95;;;2.50;;
74707;SDS011;63360;50.104;8.074;2024-02-21T08:28:32;8.13;;;2.20;;
74707;SDS011;63360;50.104;8.074;2024-02-21T08:30:58;7.80;;;2.50;;
74707;SDS011;63360;50.104;8.074;2024-02-21T08:33:24;8.83;;;2.90;;
74707;SDS011;63360;50.104;8.074;2024-02-21T08:35:51;5.68;;;2.30;;
74707;SDS011;63360;50.104;8.074;2024-02-21T08:38:18;9.60;;;2.60;;
74707;SDS011;63360;50.104;8.074;2024-02-21T08:40:44;6.95;;;2.50;;
74707;SDS011;63360;50.104;8.074;2024-02-21T08:43:11;9.10;;;2.83;;
74707;SDS011;63360;50.104;8.074;2024-02-21T08:45:37;8.23;;;2.60;;
74707;SDS011;63360;50.104;8.074;2024-02-21T08:48:04;7.82;;;2.58;;
74707;SDS011;63360;50.104;8.074;2024-02-21T08:50:31;9.63;;;2.35;;
74707;SDS011;63360;50.104;8.074;2024-02-21T08:52:57;9.20;;;2.65;;
74707;SDS011;63360;50.104;8.074;2024-02-21T08:55:24;9.77;;;2.55;;
74707;SDS011;63360;50.104;8.074;2024-02-21T08:57:51;12.60;;;2.60;;
74707;SDS011;63360;50.104;8.074;2024-02-21T09:00:17;8.30;;;2.42;;
74707;SDS011;63360;50.104;8.074;2024-02-21T09:02:44;6.75;;;2.15;;
74707;SDS011;63360;50.104;8.074;2024-02-21T09:05:13;7.18;;;2.45;;
74707;SDS011;63360;50.104;8.074;2024-02-21T09:07:40;7.35;;;2.38;;
74707;SDS011;63360;50.104;8.074;2024-02-21T09:10:06;6.33;;;2.10;;
74707;SDS011;63360;50.104;8.074;2024-02-21T09:12:33;9.48;;;2.45;;
74707;SDS011;63360;50.104;8.074;2024-02-21T09:14:59;7.30;;;2.47;;
74707;SDS011;63360;50.104;8.074;2024-02-21T09:17:26;8.13;;;2.40;;
74707;SDS011;63360;50.104;8.074;2024-02-21T09:19:55;7.43;;;2.42;;
74707;SDS011;63360;50.104;8.074;2024-02-21T09:22:25;7.87;;;2.10;;
74707;SDS011;63360;50.104;8.074;2024-02-21T09:24:51;11.00;;;2.45;;
74707;SDS011;63360;50.104;8.074;2024-02-21T09:27:18;9.50;;;2.97;;
74707;SDS011;63360;50.104;8.074;2024-02-21T09:29:44;8.07;;;2.47;;
74707;SDS011;63360;50.104;8.074;2024-02-21T09:32:11;10.00;;;3.08;;
74707;SDS011;63360;50.104;8.074;2024-02-21T09:34:38;8.93;;;2.67;;
74707;SDS011;63360;50.104;8.074;2024-02-21T09:37:06;8.77;;;2.50;;
74707;SDS011;63360;50.104;8.074;2024-02-21T09:39:32;8.93;;;2.92;;
74707;SDS011;63360;50.104;8.074;2024-02-21T09:41:59;7.65;;;2.85;;
74707;SDS011;63360;50.104;8.074;2024-02-21T09:44:33;11.43;;;2.88;;
74707;SDS011;63360;50.104;8.074;2024-02-21T09:47:04;9.10;;;3.40;;
74707;SDS011;63360;50.104;8.074;2024-02-21T09:49:34;8.70;;;2.97;;
74707;SDS011;63360;50.104;8.074;2024-02-21T09:52:05;10.40;;;3.50;;
74707;SDS011;63360;50.104;8.074;2024-02-21T09:54:32;12.20;;;3.95;;
74707;SDS011;63360;50.104;8.074;2024-02-21T09:57:00;13.50;;;4.03;;
74707;SDS011;63360;50.104;8.074;2024-02-21T09:59:28;13.93;;;4.00;;
74707;SDS011;63360;50.104;8.074;2024-02-21T10:01:55;13.60;;;3.92;;
74707;SDS011;63360;50.104;8.074;2024-02-21T10:04:22;9.68;;;3.80;;
74707;SDS011;63360;50.104;8.074;2024-02-21T10:06:48;13.07;;;3.50;;
74707;SDS011;63360;50.104;8.074;2024-02-21T10:09:21;8.85;;;3.17;;
74707;SDS011;63360;50.104;8.074;2024-02-21T10:11:54;13.57;;;4.00;;
74707;SDS011;63360;50.104;8.074;2024-02-21T10:14:40;10.70;;;2.80;;
74707;SDS011;63360;50.104;8.074;2024-02-21T10:17:06;9.85;;;2.97;;
74707;SDS011;63360;50.104;8.074;2024-02-21T10:19:37;8.80;;;2.92;;
74707;SDS011;63360;50.104;8.074;2024-02-21T10:22:04;10.43;;;3.97;;
74707;SDS011;63360;50.104;8.074;2024-02-21T10:24:31;10.27;;;4.03;;
74707;SDS011;63360;50.104;8.074;2024-02-21T10:29:40;10.18;;;4.60;;
74707;SDS011;63360;50.104;8.074;2024-02-21T10:32:08;12.63;;;4.93;;
74707;SDS011;63360;50.104;8.074;2024-02-21T10:34:36;10.63;;;4.75;;
74707;SDS011;63360;50.104;8.074;2024-02-21T10:37:04;9.10;;;4.20;;
74707;SDS011;63360;50.104;8.074;2024-02-21T10:39:32;13.55;;;4.38;;
74707;SDS011;63360;50.104;8.074;2024-02-21T10:42:00;13.15;;;4.95;;
74707;SDS011;63360;50.104;8.074;2024-02-21T10:44:31;9.60;;;4.00;;
74707;SDS011;63360;50.104;8.074;2024-02-21T10:47:00;10.00;;;4.00;;
74707;SDS011;63360;50.104;8.074;2024-02-21T10:49:34;11.63;;;4.00;;
74707;SDS011;63360;50.104;8.074;2024-02-21T10:52:06;11.40;;;3.75;;
74707;SDS011;63360;50.104;8.074;2024-02-21T10:57:12;12.75;;;4.00;;
74707;SDS011;63360;50.104;8.074;2024-02-21T10:59:40;14.68;;;4.30;;
74707;SDS011;63360;50.104;8.074;2024-02-21T11:02:07;11.97;;;4.00;;
74707;SDS011;63360;50.104;8.074;2024-02-21T11:04:33;9.00;;;3.55;;
74707;SDS011;63360;50.104;8.074;2024-02-21T11:07:05;13.95;;;4.40;;
74707;SDS011;63360;50.104;8.074;2024-02-21T11:09:36;8.73;;;3.67;;
74707;SDS011;63360;50.104;8.074;2024-02-21T11:12:04;12.45;;;4.15;;
74707;SDS011;63360;50.104;8.074;2024-02-21T11:14:32;14.00;;;4.20;;
74707;SDS011;63360;50.104;8.074;2024-02-21T11:17:01;11.48;;;3.90;;
74707;SDS011;63360;50.104;8.074;2024-02-21T11:19:30;8.90;;;3.72;;
74707;SDS011;63360;50.104;8.074;2024-02-21T11:21:57;11.02;;;3.05;;
74707;SDS011;63360;50.104;8.074;2024-02-21T11:24:29;9.73;;;3.17;;
74707;SDS011;63360;50.104;8.074;2024-02-21T11:27:07;9.57;;;3.10;;
74707;SDS011;63360;50.104;8.074;2024-02-21T11:29:47;11.25;;;3.60;;
74707;SDS011;63360;50.104;8.074;2024-02-21T11:32:21;12.55;;;3.95;;
74707;SDS011;63360;50.104;8.074;2024-02-21T11:37:34;11.02;;;2.90;;
74707;SDS011;63360;50.104;8.074;2024-02-21T11:40:05;9.57;;;2.97;;
74707;SDS011;63360;50.104;8.074;2024-02-21T11:42:38;9.15;;;3.10;;
74707;SDS011;63360;50.104;8.074;2024-02-21T11:45:04;11.18;;;3.58;;
74707;SDS011;63360;50.104;8.074;2024-02-21T11:47:32;8.98;;;3.00;;
74707;SDS011;63360;50.104;8.074;2024-02-21T11:49:58;11.40;;;3.28;;
74707;SDS011;63360;50.104;8.074;2024-02-21T11:52:25;10.33;;;3.30;;
74707;SDS011;63360;50.104;8.074;2024-02-21T11:54:53;10.68;;;3.60;;
74707;SDS011;63360;50.104;8.074;2024-02-21T11:57:20;7.93;;;3.13;;
74707;SDS011;63360;50.104;8.074;2024-02-21T11:59:47;10.00;;;3.15;;
74707;SDS011;63360;50.104;8.074;2024-02-21T12:02:14;10.60;;;3.60;;
74707;SDS011;63360;50.104;8.074;2024-02-21T12:04:42;10.90;;;3.67;;
74707;SDS011;63360;50.104;8.074;2024-02-21T12:07:09;11.40;;;3.53;;
74707;SDS011;63360;50.104;8.074;2024-02-21T12:09:36;13.27;;;4.55;;
74707;SDS011;63360;50.104;8.074;2024-02-21T12:12:03;11.80;;;3.72;;
74707;SDS011;63360;50.104;8.074;2024-02-21T12:14:32;13.13;;;4.05;;
74707;SDS011;63360;50.104;8.074;2024-02-21T12:17:01;11.77;;;3.70;;
74707;SDS011;63360;50.104;8.074;2024-02-21T12:19:30;10.98;;;3.55;;
74707;SDS011;63360;50.104;8.074;2024-02-21T12:21:58;9.50;;;3.58;;
74707;SDS011;63360;50.104;8.074;2024-02-21T12:24:26;12.88;;;3.63;;
74707;SDS011;63360;50.104;8.074;2024-02-21T12:26:54;10.95;;;4.00;;
74707;SDS011;63360;50.104;8.074;2024-02-21T12:29:22;10.20;;;4.00;;
74707;SDS011;63360;50.104;8.074;2024-02-21T12:31:51;8.02;;;3.08;;
74707;SDS011;63360;50.104;8.074;2024-02-21T12:34:17;9.60;;;3.45;;
74707;SDS011;63360;50.104;8.074;2024-02-21T12:36:59;10.85;;;3.45;;
74707;SDS011;63360;50.104;8.074;2024-02-21T12:39:26;9.50;;;2.92;;
74707;SDS011;63360;50.104;8.074;2024-02-21T12:41:54;10.30;;;2.80;;
74707;SDS011;63360;50.104;8.074;2024-02-21T12:44:22;7.88;;;3.00;;
74707;SDS011;63360;50.104;8.074;2024-02-21T12:46:50;10.85;;;3.13;;
74707;SDS011;63360;50.104;8.074;2024-02-21T12:49:19;8.57;;;2.45;;
74707;SDS011;63360;50.104;8.074;2024-02-21T12:51:46;12.15;;;2.63;;
74707;SDS011;63360;50.104;8.074;2024-02-21T12:54:13;8.83;;;2.67;;
74707;SDS011;63360;50.104;8.074;2024-02-21T12:56:39;7.65;;;2.22;;
74707;SDS011;63360;50.104;8.074;2024-02-21T12:59:08;9.65;;;2.70;;
74707;SDS011;63360;50.104;8.074;2024-02-21T13:01:37;7.90;;;2.60;;
74707;SDS011;63360;50.104;8.074;2024-02-21T13:04:05;8.27;;;2.30;;
74707;SDS011;63360;50.104;8.074;2024-02-21T13:06:31;11.10;;;2.50;;
74707;SDS011;63360;50.104;8.074;2024-02-21T13:08:58;7.60;;;2.13;;
74707;SDS011;63360;50.104;8.074;2024-02-21T13:11:25;6.00;;;2.20;;
74707;SDS011;63360;50.104;8.074;2024-02-21T13:13:54;8.82;;;2.35;;
74707;SDS011;63360;50.104;8.074;2024-02-21T13:16:21;6.35;;;1.90;;
74707;SDS011;63360;50.104;8.074;2024-02-21T13:18:48;7.23;;;1.83;;
74707;SDS011;63360;50.104;8.074;2024-02-21T13:21:15;8.05;;;2.50;;
74707;SDS011;63360;50.104;8.074;2024-02-21T13:23:41;5.80;;;1.80;;
74707;SDS011;63360;50.104;8.074;2024-02-21T13:26:10;8.95;;;2.05;;
74707;SDS011;63360;50.104;8.074;2024-02-21T13:28:37;7.72;;;2.30;;
74707;SDS011;63360;50.104;8.074;2024-02-21T13:31:03;7.90;;;2.13;;
74707;SDS011;63360;50.104;8.074;2024-02-21T13:33:30;7.68;;;2.22;;
74707;SDS011;63360;50.104;8.074;2024-02-21T13:35:57;6.07;;;2.00;;
74707;SDS011;63360;50.104;8.074;2024-02-21T13:38:23;9.63;;;1.80;;
74707;SDS011;63360;50.104;8.074;2024-02-21T13:40:50;10.43;;;2.47;;
74707;SDS011;63360;50.104;8.074;2024-02-21T13:43:17;7.33;;;1.90;;
74707;SDS011;63360;50.104;8.074;2024-02-21T13:45:45;7.90;;;2.10;;
74707;SDS011;63360;50.104;8.074;2024-02-21T13:48:22;7.63;;;2.25;;
74707;SDS011;63360;50.104;8.074;2024-02-21T13:50:49;6.80;;;2.28;;
74707;SDS011;63360;50.104;8.074;2024-02-21T13:53:15;8.95;;;2.30;;
74707;SDS011;63360;50.104;8.074;2024-02-21T13:55:44;7.40;;;2.13;;
74707;SDS011;63360;50.104;8.074;2024-02-21T13:58:11;9.05;;;2.13;;
74707;SDS011;63360;50.104;8.074;2024-02-21T14:00:37;10.43;;;2.70;;
74707;SDS011;63360;50.104;8.074;2024-02-21T14:03:04;7.38;;;2.50;;
74707;SDS011;63360;50.104;8.074;2024-02-21T14:05:30;8.27;;;2.50;;
74707;SDS011;63360;50.104;8.074;2024-02-21T14:07:56;10.43;;;2.73;;
74707;SDS011;63360;50.104;8.074;2024-02-21T14:10:23;8.27;;;2.33;;
74707;SDS011;63360;50.104;8.074;2024-02-21T14:12:49;9.80;;;2.53;;
74707;SDS011;63360;50.104;8.074;2024-02-21T14:15:16;8.82;;;2.30;;
74707;SDS011;63360;50.104;8.074;2024-02-21T14:17:42;7.50;;;2.20;;
74707;SDS011;63360;50.104;8.074;2024-02-21T14:20:09;6.23;;;2.07;;
74707;SDS011;63360;50.104;8.074;2024-02-21T14:22:39;8.00;;;2.03;;
74707;SDS011;63360;50.104;8.074;2024-02-21T14:25:06;11.75;;;4.25;;
74707;SDS011;63360;50.104;8.074;2024-02-21T14:27:32;9.77;;;3.38;;
74707;SDS011;63360;50.104;8.074;2024-02-21T14:29:59;9.00;;;2.58;;
74707;SDS011;63360;50.104;8.074;2024-02-21T14:32:25;8.20;;;2.40;;
74707;SDS011;63360;50.104;8.074;2024-02-21T14:34:52;5.80;;;2.15;;
74707;SDS011;63360;50.104;8.074;2024-02-21T14:37:18;5.45;;;2.55;;
74707;SDS011;63360;50.104;8.074;2024-02-21T14:39:45;7.70;;;2.15;;
74707;SDS011;63360;50.104;8.074;2024-02-21T14:42:11;8.77;;;2.30;;
74707;SDS011;63360;50.104;8.074;2024-02-21T14:44:37;6.67;;;2.37;;
74707;SDS011;63360;50.104;8.074;2024-02-21T14:47:04;6.68;;;2.00;;
74707;SDS011;63360;50.104;8.074;2024-02-21T14:49:30;8.82;;;2.28;;